Time;durP1;ratioP1;P1;durP2;ratioP2;P2;SDS_P1;SDS_P2;PMS_P1;PMS_P2;Temp;Humidity;BMP_temperature;BMP_pressure;BME280_temperature;BME280_humidity;BME280_pressure;Samples;Min_cycle;Max_cycle;Signal;HPM_P1;HPM_P2
2021/10/30 00:00:33;;;;;;;10.38;7.60;;;13.70;96.60;;;;;;5074414;28;20118;-65
2021/10/30 00:02:59;;;;;;;10.43;7.00;;;13.80;96.80;;;;;;5074338;28;20044;-64
2021/10/30 00:05:24;;;;;;;10.82;7.78;;;13.80;96.60;;;;;;5073857;28;21006;-64
2021/10/30 00:07:50;;;;;;;14.25;9.52;;;13.80;96.40;;;;;;5072848;28;20044;-65
2021/10/30 00:10:16;;;;;;;10.73;7.53;;;13.70;96.40;;;;;;5073170;28;20400;-64
2021/10/30 00:12:42;;;;;;;15.18;11.15;;;13.70;96.60;;;;;;5072491;28;20051;-64
2021/10/30 00:15:09;;;;;;;18.40;12.75;;;13.60;96.60;;;;;;5060245;28;20521;-65
2021/10/30 00:17:35;;;;;;;12.13;7.45;;;13.70;96.70;;;;;;5058137;28;20072;-60
2021/10/30 00:20:01;;;;;;;14.75;9.73;;;13.90;96.70;;;;;;5072743;28;20124;-60
2021/10/30 00:22:29;;;;;;;10.65;8.18;;;13.90;96.40;;;;;;5073644;28;20101;-60
2021/10/30 00:24:55;;;;;;;16.67;10.23;;;13.90;96.30;;;;;;5075588;28;20053;-60
2021/10/30 00:27:21;;;;;;;11.07;8.15;;;13.90;96.30;;;;;;5087405;28;20067;-60
2021/10/30 00:29:47;;;;;;;9.77;6.82;;;13.90;96.20;;;;;;5071503;28;20556;-60
2021/10/30 00:32:12;;;;;;;11.30;7.25;;;13.90;96.10;;;;;;5072645;28;20522;-60
2021/10/30 00:34:38;;;;;;;12.05;7.95;;;13.70;96.00;;;;;;5089382;28;20539;-60
2021/10/30 00:37:05;;;;;;;9.10;7.45;;;13.60;96.10;;;;;;5071967;28;20043;-60
2021/10/30 00:39:31;;;;;;;10.80;8.27;;;13.40;96.30;;;;;;5070651;28;20122;-60
2021/10/30 00:41:57;;;;;;;13.93;9.23;;;13.30;96.60;;;;;;5073105;28;20141;-60
2021/10/30 00:44:23;;;;;;;11.05;7.63;;;13.20;96.70;;;;;;5073124;28;20602;-60
2021/10/30 00:46:51;;;;;;;10.38;8.32;;;13.00;96.90;;;;;;5071668;28;20048;-60
2021/10/30 00:49:19;;;;;;;14.88;9.25;;;12.90;97.10;;;;;;5086869;28;20052;-60
2021/10/30 00:51:52;;;;;;;14.20;8.23;;;12.90;97.40;;;;;;5072345;28;20052;-60
2021/10/30 00:54:18;;;;;;;9.93;7.77;;;13.00;97.50;;;;;;5059052;28;20152;-59
2021/10/30 00:56:45;;;;;;;13.63;9.48;;;12.90;97.30;;;;;;5073443;28;20043;-60
2021/10/30 00:59:14;;;;;;;12.23;8.25;;;12.90;97.40;;;;;;5057663;28;20094;-60
2021/10/30 01:01:41;;;;;;;11.48;8.25;;;12.80;97.60;;;;;;5073475;28;20040;-59
2021/10/30 01:04:07;;;;;;;11.80;8.63;;;12.80;97.50;;;;;;5073033;28;20433;-60
2021/10/30 01:06:34;;;;;;;10.25;7.32;;;12.70;97.60;;;;;;5073113;28;20029;-60
2021/10/30 01:09:01;;;;;;;14.25;8.30;;;12.80;97.70;;;;;;5071495;28;20617;-59
2021/10/30 01:11:27;;;;;;;12.23;8.00;;;12.70;97.60;;;;;;5069759;28;20044;-59
2021/10/30 01:13:54;;;;;;;8.38;6.93;;;12.60;97.60;;;;;;5041710;28;20059;-60
2021/10/30 01:16:20;;;;;;;12.07;7.35;;;12.60;97.70;;;;;;5072384;28;20077;-60
2021/10/30 01:18:46;;;;;;;8.68;7.45;;;12.60;97.70;;;;;;5071808;28;20041;-60
2021/10/30 01:21:13;;;;;;;9.50;7.30;;;12.60;97.80;;;;;;5071158;28;20033;-60
2021/10/30 01:23:39;;;;;;;9.48;7.15;;;12.60;97.80;;;;;;5071920;28;20032;-60
2021/10/30 01:26:05;;;;;;;9.40;6.88;;;12.60;97.70;;;;;;5074296;28;20029;-60
2021/10/30 01:28:35;;;;;;;10.27;7.38;;;12.50;97.80;;;;;;5085871;28;20044;-60
2021/10/30 01:31:01;;;;;;;11.10;7.38;;;12.50;97.90;;;;;;5070894;28;20044;-59
2021/10/30 01:33:27;;;;;;;12.10;6.25;;;12.60;98.00;;;;;;5071008;28;20402;-60
2021/10/30 01:35:53;;;;;;;11.00;6.88;;;12.60;97.90;;;;;;5072891;28;20043;-60
2021/10/30 01:38:19;;;;;;;9.35;6.72;;;12.60;97.80;;;;;;5071433;28;20048;-60
2021/10/30 01:40:50;;;;;;;12.70;6.72;;;12.60;97.90;;;;;;5070054;28;20036;-60
2021/10/30 01:43:18;;;;;;;8.55;6.30;;;12.60;97.80;;;;;;5071706;28;20177;-60
2021/10/30 01:45:45;;;;;;;9.18;6.15;;;12.50;97.90;;;;;;5072366;28;20067;-60
2021/10/30 01:48:11;;;;;;;9.13;6.22;;;12.50;97.90;;;;;;5069823;28;20040;-59
2021/10/30 01:50:40;;;;;;;11.93;6.93;;;12.50;97.90;;;;;;5070793;28;20060;-59
2021/10/30 01:53:07;;;;;;;8.80;6.63;;;12.50;97.90;;;;;;5058204;28;20631;-59
2021/10/30 01:55:35;;;;;;;8.95;6.43;;;12.50;97.90;;;;;;5070991;28;20086;-60
2021/10/30 01:58:01;;;;;;;9.57;6.13;;;12.40;97.90;;;;;;5069715;28;20041;-60
2021/10/30 02:00:27;;;;;;;8.02;6.40;;;12.40;97.90;;;;;;5068149;28;20039;-61
2021/10/30 02:02:52;;;;;;;7.97;6.70;;;12.40;97.90;;;;;;5070956;28;21051;-60
2021/10/30 02:05:18;;;;;;;8.90;5.93;;;12.40;97.90;;;;;;5071793;28;20048;-60
2021/10/30 02:07:44;;;;;;;10.32;6.50;;;12.40;97.90;;;;;;5070241;28;20392;-61
2021/10/30 02:10:12;;;;;;;10.32;6.13;;;12.40;97.80;;;;;;5068811;28;20083;-60
2021/10/30 02:12:39;;;;;;;9.35;6.60;;;12.40;97.80;;;;;;5069445;28;20036;-61
2021/10/30 02:15:06;;;;;;;6.63;5.47;;;12.30;97.80;;;;;;5070578;28;20085;-61
2021/10/30 02:17:32;;;;;;;7.35;5.70;;;12.30;97.90;;;;;;5071234;28;20036;-61
2021/10/30 02:19:58;;;;;;;10.60;6.13;;;12.30;97.90;;;;;;5071848;28;20045;-59
2021/10/30 02:22:24;;;;;;;8.10;6.47;;;12.30;97.90;;;;;;5069673;28;20164;-60
2021/10/30 02:24:51;;;;;;;8.27;6.10;;;12.20;97.80;;;;;;5068910;28;20082;-59
2021/10/30 02:27:17;;;;;;;11.88;6.10;;;12.20;97.80;;;;;;5073107;28;20115;-60
2021/10/30 02:29:43;;;;;;;9.15;6.38;;;12.20;97.90;;;;;;5068768;28;20047;-59
2021/10/30 02:32:09;;;;;;;9.23;5.95;;;12.20;97.90;;;;;;5070754;28;20048;-59
2021/10/30 02:34:35;;;;;;;6.80;5.25;;;12.20;97.90;;;;;;5085382;28;20117;-59
2021/10/30 02:37:01;;;;;;;9.18;6.00;;;12.10;97.90;;;;;;5070642;28;20056;-59
2021/10/30 02:39:27;;;;;;;7.65;5.35;;;12.10;98.00;;;;;;5069789;28;20341;-60
2021/10/30 02:41:53;;;;;;;7.03;5.35;;;12.10;98.00;;;;;;5069526;28;20036;-59
2021/10/30 02:44:19;;;;;;;8.18;6.15;;;12.10;98.00;;;;;;5070901;28;20424;-59
2021/10/30 02:46:45;;;;;;;7.65;5.50;;;12.20;98.10;;;;;;5058453;28;20062;-59
2021/10/30 02:49:10;;;;;;;6.78;6.03;;;12.10;98.00;;;;;;5070894;28;20113;-59
2021/10/30 02:51:36;;;;;;;8.15;6.10;;;12.10;98.20;;;;;;5068226;28;20055;-59
2021/10/30 02:54:03;;;;;;;6.95;5.00;;;12.10;98.00;;;;;;5070742;28;20050;-59
2021/10/30 02:56:29;;;;;;;7.97;6.30;;;12.00;98.00;;;;;;5069387;28;20622;-59
2021/10/30 02:58:54;;;;;;;8.50;5.78;;;11.90;98.00;;;;;;5072898;28;20067;-59
2021/10/30 03:01:20;;;;;;;10.07;6.50;;;11.90;98.10;;;;;;5061511;28;20477;-60
2021/10/30 03:03:46;;;;;;;7.03;6.10;;;11.90;98.10;;;;;;5073933;28;20037;-60
2021/10/30 03:06:12;;;;;;;9.10;6.32;;;11.80;98.10;;;;;;5073162;28;20028;-58
2021/10/30 03:08:38;;;;;;;10.45;6.53;;;11.70;98.20;;;;;;5058304;28;20055;-59
2021/10/30 03:11:03;;;;;;;12.30;7.38;;;11.70;98.30;;;;;;5072608;28;20146;-59
2021/10/30 03:13:30;;;;;;;9.23;7.75;;;11.70;98.40;;;;;;5072833;28;20046;-59
2021/10/30 03:15:56;;;;;;;12.75;6.88;;;11.70;98.50;;;;;;5044164;28;20052;-60
2021/10/30 03:18:22;;;;;;;10.82;8.00;;;11.60;98.50;;;;;;5075477;28;20038;-60
2021/10/30 03:20:49;;;;;;;10.20;7.50;;;11.60;98.60;;;;;;5044280;28;20044;-59
2021/10/30 03:23:15;;;;;;;11.52;7.30;;;11.50;98.70;;;;;;5072260;28;20043;-61
2021/10/30 03:25:41;;;;;;;10.65;7.03;;;11.40;98.70;;;;;;5073573;28;20067;-60
2021/10/30 03:28:07;;;;;;;9.73;6.95;;;11.40;98.70;;;;;;5062674;28;20499;-60
2021/10/30 03:30:33;;;;;;;11.10;7.63;;;11.40;98.80;;;;;;5070964;28;20045;-60
2021/10/30 03:32:59;;;;;;;9.05;7.32;;;11.40;98.90;;;;;;5073454;28;20527;-60
2021/10/30 03:35:25;;;;;;;9.32;7.47;;;11.40;98.90;;;;;;5074001;28;20064;-60
2021/10/30 03:37:51;;;;;;;11.40;7.05;;;11.40;98.90;;;;;;5073542;28;20055;-59
2021/10/30 03:40:16;;;;;;;9.73;7.47;;;11.40;99.00;;;;;;5074122;28;20114;-59
2021/10/30 03:42:42;;;;;;;10.63;7.30;;;11.40;98.90;;;;;;5070932;28;20119;-61
2021/10/30 03:45:08;;;;;;;10.75;7.53;;;11.40;98.90;;;;;;5073558;28;20091;-60
2021/10/30 03:47:35;;;;;;;11.18;7.90;;;11.30;99.00;;;;;;5073715;28;20052;-61
2021/10/30 03:50:01;;;;;;;8.90;7.45;;;11.30;99.00;;;;;;5074343;28;20048;-59
2021/10/30 03:52:27;;;;;;;10.00;7.82;;;11.30;99.10;;;;;;5073183;28;20192;-59
2021/10/30 03:54:53;;;;;;;9.27;7.60;;;11.40;99.10;;;;;;5072482;28;20353;-59
2021/10/30 03:57:20;;;;;;;9.05;7.45;;;11.30;99.10;;;;;;5073144;28;20074;-60
2021/10/30 03:59:46;;;;;;;11.98;8.95;;;11.30;99.10;;;;;;5060916;28;20056;-59
2021/10/30 04:02:12;;;;;;;12.95;8.55;;;11.40;99.10;;;;;;5074226;28;20123;-59
2021/10/30 04:04:38;;;;;;;13.25;8.45;;;11.40;99.10;;;;;;5071968;28;20136;-59
2021/10/30 04:07:04;;;;;;;12.35;9.63;;;11.40;99.20;;;;;;5073312;28;20047;-60
2021/10/30 04:09:30;;;;;;;12.05;8.55;;;11.40;99.20;;;;;;5091050;28;20036;-59
2021/10/30 04:11:55;;;;;;;14.00;9.25;;;11.40;99.20;;;;;;5072181;28;20488;-59
2021/10/30 04:14:21;;;;;;;16.25;9.80;;;11.40;99.30;;;;;;5073428;28;20119;-63
2021/10/30 04:16:48;;;;;;;16.73;10.55;;;11.50;99.30;;;;;;5073287;28;20473;-63
2021/10/30 04:19:13;;;;;;;13.73;11.27;;;11.50;99.20;;;;;;5072907;28;20539;-63
2021/10/30 04:21:40;;;;;;;13.50;11.00;;;11.50;99.20;;;;;;5072696;28;20028;-62
2021/10/30 04:24:06;;;;;;;13.95;11.02;;;11.60;99.10;;;;;;5041931;28;20484;-63
2021/10/30 04:26:33;;;;;;;13.57;10.85;;;11.60;99.10;;;;;;5074046;28;20059;-63
2021/10/30 04:29:00;;;;;;;18.15;12.63;;;11.60;99.10;;;;;;5089588;28;20093;-63
2021/10/30 04:31:28;;;;;;;18.10;12.95;;;11.60;99.20;;;;;;5072992;28;20077;-64
2021/10/30 04:33:58;;;;;;;18.08;12.73;;;11.60;99.00;;;;;;5072161;28;20036;-63
2021/10/30 04:36:26;;;;;;;19.25;13.88;;;11.60;98.90;;;;;;5059890;28;20028;-62
2021/10/30 04:38:52;;;;;;;19.98;13.15;;;11.60;98.90;;;;;;5071560;28;20041;-62
2021/10/30 04:41:19;;;;;;;21.67;13.95;;;11.60;98.90;;;;;;5072563;28;20035;-62
2021/10/30 04:43:46;;;;;;;18.60;14.02;;;11.60;98.90;;;;;;5071854;28;20059;-62
2021/10/30 04:46:17;;;;;;;19.73;14.48;;;11.60;99.00;;;;;;5088157;28;20168;-62
2021/10/30 04:48:43;;;;;;;21.55;15.40;;;11.70;98.90;;;;;;5072811;28;20044;-62
2021/10/30 04:51:09;;;;;;;18.23;14.30;;;11.70;98.90;;;;;;5074425;28;20557;-62
2021/10/30 04:53:37;;;;;;;18.25;14.60;;;11.70;98.90;;;;;;5071136;28;20044;-62
2021/10/30 04:56:03;;;;;;;19.17;14.20;;;11.60;98.80;;;;;;5058246;28;20052;-63
2021/10/30 04:58:29;;;;;;;19.38;14.40;;;11.60;98.70;;;;;;5072648;28;20392;-61
2021/10/30 05:00:55;;;;;;;21.25;15.50;;;11.60;98.80;;;;;;5071638;28;20044;-61
2021/10/30 05:03:21;;;;;;;20.25;15.50;;;11.60;98.80;;;;;;5071833;28;20039;-61
2021/10/30 05:05:47;;;;;;;20.02;16.00;;;11.60;98.90;;;;;;5086847;28;20127;-62
2021/10/30 05:08:13;;;;;;;18.27;14.48;;;11.60;98.90;;;;;;5088411;28;20117;-61
2021/10/30 05:10:39;;;;;;;19.13;13.88;;;11.60;98.90;;;;;;5068575;28;20076;-61
2021/10/30 05:13:05;;;;;;;23.70;16.98;;;11.60;98.90;;;;;;5059105;28;20066;-61
2021/10/30 05:15:32;;;;;;;23.65;16.50;;;11.70;98.90;;;;;;5057933;28;20043;-61
2021/10/30 05:17:58;;;;;;;22.95;16.00;;;11.70;98.80;;;;;;5071305;28;20451;-61
2021/10/30 05:20:24;;;;;;;21.75;16.45;;;11.60;98.80;;;;;;5072529;28;20039;-61
2021/10/30 05:22:49;;;;;;;30.45;18.08;;;11.60;98.80;;;;;;5084645;28;20109;-61
2021/10/30 05:25:15;;;;;;;22.88;16.40;;;11.70;98.80;;;;;;5059396;28;20048;-61
2021/10/30 05:27:41;;;;;;;24.40;16.75;;;11.70;98.70;;;;;;5073655;28;20583;-61
2021/10/30 05:30:07;;;;;;;21.55;16.65;;;11.60;98.70;;;;;;5069984;28;20107;-62
2021/10/30 05:32:33;;;;;;;24.80;16.90;;;11.60;98.80;;;;;;5071441;28;20072;-62
2021/10/30 05:34:58;;;;;;;19.60;16.17;;;11.60;98.80;;;;;;5071810;28;20122;-62
2021/10/30 05:37:24;;;;;;;22.45;15.65;;;11.60;98.70;;;;;;5042012;28;20189;-61
2021/10/30 05:39:50;;;;;;;18.95;15.65;;;11.50;98.70;;;;;;5058006;28;20041;-61
2021/10/30 05:42:17;;;;;;;21.58;15.23;;;11.50;98.70;;;;;;5084143;28;20044;-61
2021/10/30 05:44:42;;;;;;;23.00;16.48;;;11.50;98.70;;;;;;5087250;28;20178;-61
2021/10/30 05:47:09;;;;;;;19.77;15.55;;;11.50;98.80;;;;;;5072900;28;20040;-61
2021/10/30 05:49:38;;;;;;;23.42;15.40;;;11.50;98.70;;;;;;5071025;28;20056;-61
2021/10/30 05:52:05;;;;;;;19.08;15.02;;;11.50;98.60;;;;;;5071356;28;20131;-61
2021/10/30 05:54:31;;;;;;;20.52;16.10;;;11.50;98.60;;;;;;5071107;28;20032;-61
2021/10/30 05:56:57;;;;;;;20.85;14.75;;;11.60;98.60;;;;;;5069612;28;20044;-61
2021/10/30 05:59:22;;;;;;;17.65;14.27;;;11.50;98.50;;;;;;5087528;28;20120;-61
2021/10/30 06:01:48;;;;;;;22.83;14.30;;;11.50;98.40;;;;;;5070781;28;20091;-61
2021/10/30 06:04:13;;;;;;;21.23;14.38;;;11.50;98.40;;;;;;5070978;28;20048;-61
2021/10/30 06:06:39;;;;;;;17.40;14.20;;;11.50;98.30;;;;;;5071142;28;20040;-61
2021/10/30 06:09:05;;;;;;;15.70;12.15;;;11.50;98.20;;;;;;5073002;28;20036;-61
2021/10/30 06:11:31;;;;;;;16.00;12.85;;;11.50;98.10;;;;;;5069978;28;20124;-61
2021/10/30 06:13:57;;;;;;;13.80;11.05;;;11.50;98.00;;;;;;5069911;28;20032;-61
2021/10/30 06:16:22;;;;;;;16.80;11.32;;;11.60;97.70;;;;;;5070569;28;20400;-61
2021/10/30 06:18:49;;;;;;;14.57;10.95;;;11.60;97.50;;;;;;5071125;28;20040;-61
2021/10/30 06:21:15;;;;;;;16.98;10.38;;;11.60;97.30;;;;;;5067885;28;20434;-61
2021/10/30 06:23:43;;;;;;;12.52;10.35;;;11.60;97.10;;;;;;5069312;28;20032;-61
2021/10/30 06:26:09;;;;;;;12.23;9.82;;;11.80;96.70;;;;;;5071218;28;20044;-61
2021/10/30 06:28:35;;;;;;;12.30;9.82;;;11.80;96.40;;;;;;5073246;28;20123;-61
2021/10/30 06:31:01;;;;;;;17.80;10.27;;;11.80;96.40;;;;;;5069631;28;20036;-61
2021/10/30 06:33:27;;;;;;;14.02;10.40;;;11.80;96.40;;;;;;5070117;28;20036;-60
2021/10/30 06:35:53;;;;;;;12.25;9.80;;;11.80;96.30;;;;;;5071270;28;20040;-61
2021/10/30 06:38:18;;;;;;;12.32;9.77;;;11.80;96.20;;;;;;5040898;28;20032;-61
2021/10/30 06:40:44;;;;;;;13.52;9.25;;;11.80;96.10;;;;;;5086038;28;20043;-61
2021/10/30 06:43:10;;;;;;;15.32;10.05;;;11.80;96.10;;;;;;5067085;28;20700;-61
2021/10/30 06:45:35;;;;;;;11.88;9.52;;;11.80;96.10;;;;;;5070031;28;20060;-61
2021/10/30 06:48:01;;;;;;;10.63;9.52;;;11.80;96.10;;;;;;5070209;28;20078;-61
2021/10/30 06:50:30;;;;;;;12.20;9.20;;;11.80;96.10;;;;;;5070178;28;20213;-60
2021/10/30 06:52:55;;;;;;;13.23;9.27;;;11.70;96.00;;;;;;5068991;28;20045;-61
2021/10/30 06:55:21;;;;;;;13.10;9.88;;;11.80;96.00;;;;;;5069946;28;20090;-65
2021/10/30 06:57:48;;;;;;;10.98;8.43;;;11.70;96.10;;;;;;5067692;28;20044;-61
2021/10/30 07:00:14;;;;;;;13.02;9.07;;;11.70;96.00;;;;;;5070582;28;20064;-61
2021/10/30 07:02:42;;;;;;;12.88;7.82;;;11.70;96.00;;;;;;5067896;28;20122;-61
2021/10/30 07:05:08;;;;;;;12.38;9.15;;;11.70;95.70;;;;;;5069742;28;20055;-61
2021/10/30 07:07:34;;;;;;;10.77;8.13;;;11.70;95.80;;;;;;5083659;28;20048;-61
2021/10/30 07:10:00;;;;;;;12.48;8.00;;;11.70;95.60;;;;;;5067231;28;20036;-61
2021/10/30 07:12:27;;;;;;;12.68;8.90;;;11.70;95.60;;;;;;5069289;28;20091;-62
2021/10/30 07:14:53;;;;;;;13.90;9.20;;;11.70;95.70;;;;;;5070734;28;20028;-63
2021/10/30 07:17:19;;;;;;;12.63;8.05;;;11.80;95.40;;;;;;5067370;28;20052;-61
2021/10/30 07:19:45;;;;;;;9.23;7.97;;;11.80;95.50;;;;;;5070402;28;20071;-61
2021/10/30 07:22:10;;;;;;;12.98;8.75;;;11.70;95.50;;;;;;5083824;28;20035;-61
2021/10/30 07:24:36;;;;;;;10.30;7.55;;;11.80;95.60;;;;;;5069289;28;20039;-61
2021/10/30 07:27:02;;;;;;;10.70;8.23;;;11.80;95.20;;;;;;5070188;28;20438;-65
2021/10/30 07:29:28;;;;;;;12.60;8.80;;;11.80;95.10;;;;;;5066659;28;20052;-62
2021/10/30 07:31:54;;;;;;;9.57;7.28;;;11.90;95.00;;;;;;5069814;28;20039;-60
2021/10/30 07:34:19;;;;;;;11.65;7.15;;;11.90;95.00;;;;;;5069986;28;20040;-62
2021/10/30 07:36:45;;;;;;;9.73;7.45;;;11.90;94.90;;;;;;5069372;28;20502;-60
2021/10/30 07:39:10;;;;;;;9.15;7.35;;;11.90;94.80;;;;;;5068484;28;20047;-60
2021/10/30 07:41:36;;;;;;;11.02;7.18;;;12.00;94.60;;;;;;5067409;28;20047;-63
2021/10/30 07:44:02;;;;;;;11.25;7.15;;;12.00;94.60;;;;;;5085100;28;20040;-61
2021/10/30 07:46:28;;;;;;;9.15;7.50;;;12.00;94.60;;;;;;5055734;28;20500;-61
2021/10/30 07:48:54;;;;;;;9.75;7.15;;;12.00;94.60;;;;;;5060422;28;20056;-61
2021/10/30 07:51:21;;;;;;;10.15;7.05;;;12.00;94.70;;;;;;5072390;28;20079;-61
2021/10/30 07:53:50;;;;;;;10.60;7.00;;;12.00;95.00;;;;;;5072605;28;19919;-61
2021/10/30 07:56:15;;;;;;;10.90;6.50;;;11.90;94.90;;;;;;5071375;28;20025;-61
2021/10/30 07:58:43;;;;;;;8.38;7.10;;;11.90;95.10;;;;;;5074091;28;20032;-61
2021/10/30 08:01:09;;;;;;;13.70;7.75;;;11.90;95.10;;;;;;5072650;28;20037;-61
2021/10/30 08:03:34;;;;;;;10.20;7.68;;;11.80;95.20;;;;;;5073380;28;20055;-61
2021/10/30 08:06:00;;;;;;;10.73;7.25;;;11.80;95.40;;;;;;5071759;28;20048;-61
2021/10/30 08:08:26;;;;;;;13.27;7.25;;;11.80;95.60;;;;;;5077228;28;22044;-61
2021/10/30 08:10:51;;;;;;;10.88;7.32;;;11.80;95.80;;;;;;5070398;28;20044;-61
2021/10/30 08:13:17;;;;;;;12.13;7.22;;;11.70;96.00;;;;;;5069638;28;20050;-61
2021/10/30 08:15:43;;;;;;;9.57;7.05;;;11.70;96.20;;;;;;5072259;28;20036;-61
2021/10/30 08:18:09;;;;;;;14.90;8.30;;;11.70;96.40;;;;;;5070844;28;20045;-62
2021/10/30 08:20:35;;;;;;;11.43;7.28;;;11.60;96.60;;;;;;5069836;28;20036;-61
2021/10/30 08:23:01;;;;;;;14.57;7.88;;;11.60;96.80;;;;;;5073434;28;20032;-61
2021/10/30 08:25:27;;;;;;;12.45;7.22;;;11.60;96.90;;;;;;5073458;28;20413;-66
2021/10/30 08:27:54;;;;;;;14.10;7.80;;;11.60;97.00;;;;;;5070181;28;20036;-66
2021/10/30 08:30:20;;;;;;;10.10;7.50;;;11.60;97.10;;;;;;5072056;28;20445;-65
2021/10/30 08:32:45;;;;;;;10.27;7.43;;;11.50;97.50;;;;;;5072196;28;20040;-66
2021/10/30 08:35:11;;;;;;;14.77;8.13;;;11.50;97.40;;;;;;5073141;28;20420;-65
2021/10/30 08:37:38;;;;;;;10.75;8.05;;;11.40;97.60;;;;;;5070920;28;20048;-65
2021/10/30 08:40:06;;;;;;;12.48;8.07;;;11.50;97.60;;;;;;5068749;28;20041;-65
2021/10/30 08:42:33;;;;;;;12.13;8.38;;;11.50;97.70;;;;;;5058710;28;20059;-64
2021/10/30 08:44:59;;;;;;;12.45;7.50;;;11.40;97.90;;;;;;5074172;28;20511;-65
2021/10/30 08:47:27;;;;;;;13.82;8.55;;;11.40;98.00;;;;;;5086446;28;20053;-65
2021/10/30 08:49:54;;;;;;;12.05;9.20;;;11.50;98.00;;;;;;5071533;28;20907;-65
2021/10/30 08:52:20;;;;;;;11.95;7.88;;;11.40;98.20;;;;;;5088412;28;20051;-64
2021/10/30 08:54:46;;;;;;;10.73;7.43;;;11.40;98.30;;;;;;5070337;28;20044;-67
2021/10/30 08:57:11;;;;;;;13.27;8.50;;;11.40;98.40;;;;;;5071136;28;20404;-65
2021/10/30 08:59:45;;;;;;;10.80;8.07;;;11.40;98.40;;;;;;5058579;28;20115;-66
2021/10/30 09:02:28;;;;;;;12.88;7.82;;;11.40;98.50;;;;;;5071252;28;20511;-65
2021/10/30 09:05:27;;;;;;;11.82;7.63;;;11.40;98.50;;;;;;5071965;28;20060;-64
2021/10/30 09:07:57;;;;;;;11.40;7.00;;;11.50;98.70;;;;;;5051273;28;20095;-64
2021/10/30 09:10:28;;;;;;;10.20;6.45;;;11.40;98.90;;;;;;5068401;28;20055;-64
2021/10/30 09:12:58;;;;;;;10.27;7.80;;;11.50;99.00;;;;;;5066156;28;20499;-64
2021/10/30 09:15:35;;;;;;;11.57;7.70;;;11.50;99.10;;;;;;5070335;28;20684;-64
2021/10/30 09:18:02;;;;;;;14.55;9.25;;;11.50;99.20;;;;;;5070189;28;20456;-65
2021/10/30 09:20:33;;;;;;;11.45;8.13;;;11.50;99.30;;;;;;5060178;28;20510;-65
2021/10/30 09:22:59;;;;;;;12.98;8.65;;;11.40;99.40;;;;;;5071792;28;20044;-65
2021/10/30 09:25:24;;;;;;;14.07;8.25;;;11.40;99.40;;;;;;5068873;28;20549;-64
2021/10/30 09:28:02;;;;;;;12.50;8.90;;;11.50;99.40;;;;;;5073269;28;20101;-64
2021/10/30 09:30:35;;;;;;;12.57;8.55;;;11.50;99.50;;;;;;5069888;28;20075;-64
2021/10/30 09:33:10;;;;;;;10.43;8.07;;;11.50;99.60;;;;;;5069989;28;20400;-66
2021/10/30 09:35:44;;;;;;;11.57;8.25;;;11.60;99.70;;;;;;5071748;28;20048;-65
2021/10/30 09:38:26;;;;;;;19.55;8.02;;;11.50;99.70;;;;;;5071892;28;20028;-65
2021/10/30 09:40:51;;;;;;;11.60;7.13;;;11.50;99.70;;;;;;5069185;28;20039;-66
2021/10/30 09:43:20;;;;;;;9.02;7.25;;;11.50;99.70;;;;;;5070397;28;20573;-65
2021/10/30 09:45:52;;;;;;;8.35;6.97;;;11.60;99.80;;;;;;5070199;28;20044;-65
2021/10/30 09:48:24;;;;;;;10.45;7.53;;;11.60;99.80;;;;;;5071235;28;20411;-65
2021/10/30 09:50:55;;;;;;;9.85;6.30;;;11.60;99.80;;;;;;5069476;28;20051;-65
2021/10/30 09:53:36;;;;;;;17.05;6.60;;;11.60;99.80;;;;;;5059731;28;20153;-59
2021/10/30 09:56:09;;;;;;;9.52;6.25;;;11.70;99.90;;;;;;5068804;28;20037;-58
2021/10/30 09:58:46;;;;;;;7.22;6.22;;;11.80;99.90;;;;;;5069624;28;20041;-59
2021/10/30 10:01:13;;;;;;;7.95;5.72;;;11.80;99.80;;;;;;5069168;28;20033;-59
2021/10/30 10:03:44;;;;;;;7.00;6.00;;;11.80;99.80;;;;;;5070698;28;20060;-58
2021/10/30 10:06:14;;;;;;;8.68;6.05;;;11.90;99.80;;;;;;5071992;28;20046;-59
2021/10/30 10:08:41;;;;;;;6.20;5.03;;;12.00;99.70;;;;;;5069467;28;20040;-59
2021/10/30 10:11:09;;;;;;;10.52;5.65;;;12.00;99.60;;;;;;5070718;28;20101;-58
2021/10/30 10:13:39;;;;;;;7.78;5.63;;;12.10;99.50;;;;;;5070257;28;20046;-59
2021/10/30 10:16:19;;;;;;;6.82;5.05;;;12.10;99.50;;;;;;5070069;28;20133;-59
2021/10/30 10:18:46;;;;;;;7.22;5.03;;;12.20;99.50;;;;;;5070126;28;20541;-59
2021/10/30 10:21:22;;;;;;;8.63;4.95;;;12.20;99.40;;;;;;5067709;28;20048;-59
2021/10/30 10:23:48;;;;;;;6.97;5.50;;;12.30;99.30;;;;;;5070404;28;20051;-59
2021/10/30 10:26:16;;;;;;;8.57;5.07;;;12.30;99.20;;;;;;5066333;28;20044;-59
2021/10/30 10:28:43;;;;;;;7.20;5.13;;;12.50;99.20;;;;;;5068346;28;20051;-59
2021/10/30 10:31:23;;;;;;;8.23;5.50;;;12.50;99.10;;;;;;5072517;28;22253;-60
2021/10/30 10:34:08;;;;;;;9.55;4.90;;;12.50;99.00;;;;;;5067418;28;20669;-59
2021/10/30 10:36:34;;;;;;;7.57;5.43;;;12.60;98.80;;;;;;5069976;28;20044;-59
2021/10/30 10:39:00;;;;;;;7.28;5.28;;;12.60;98.70;;;;;;5069842;28;20149;-59
2021/10/30 10:41:37;;;;;;;8.07;5.38;;;12.70;98.60;;;;;;5070022;28;20040;-59
2021/10/30 10:44:26;;;;;;;7.75;4.95;;;12.80;98.50;;;;;;5068006;28;20036;-59
2021/10/30 10:46:59;;;;;;;6.85;4.40;;;12.80;98.30;;;;;;5049928;28;20040;-59
2021/10/30 10:52:19;;;;;;;8.02;5.05;;;12.80;98.10;;;;;;5066809;28;19925;-59
2021/10/30 10:55:02;;;;;;;8.68;5.50;;;12.80;98.10;;;;;;5069945;28;20067;-59
2021/10/30 10:57:30;;;;;;;9.65;5.40;;;12.80;98.00;;;;;;5069940;28;20036;-58
2021/10/30 11:00:06;;;;;;;8.70;4.88;;;12.90;98.10;;;;;;5070748;28;20093;-59
2021/10/30 11:02:34;;;;;;;8.35;4.80;;;12.90;98.10;;;;;;5068720;28;20079;-58
2021/10/30 11:05:09;;;;;;;5.78;4.93;;;12.90;98.00;;;;;;5071231;28;20395;-59
2021/10/30 11:08:02;;;;;;;7.07;4.82;;;13.00;98.00;;;;;;5071500;28;22439;-58
2021/10/30 11:10:30;;;;;;;6.87;4.37;;;13.00;98.00;;;;;;5044151;28;20044;-59
2021/10/30 11:13:01;;;;;;;7.57;4.60;;;13.10;98.00;;;;;;5069045;28;20061;-58
2021/10/30 11:15:38;;;;;;;6.35;4.85;;;13.10;98.00;;;;;;5069854;28;20047;-59
2021/10/30 11:18:15;;;;;;;8.43;5.43;;;13.00;98.10;;;;;;5068048;28;20495;-61
2021/10/30 11:20:43;;;;;;;6.65;4.30;;;13.10;98.10;;;;;;5070551;28;20047;-59
2021/10/30 11:23:30;;;;;;;9.70;4.35;;;13.10;98.20;;;;;;5071680;28;20484;-58
2021/10/30 11:26:06;;;;;;;9.40;4.70;;;13.00;98.30;;;;;;5072793;28;20092;-59
2021/10/30 11:28:39;;;;;;;6.18;4.53;;;12.90;98.60;;;;;;5074114;28;20044;-59
2021/10/30 11:31:29;;;;;;;8.40;4.80;;;12.90;98.80;;;;;;5070373;28;20048;-59
2021/10/30 11:34:07;;;;;;;12.05;6.22;;;12.90;98.90;;;;;;5071592;28;20123;-59
2021/10/30 11:36:36;;;;;;;8.18;4.85;;;12.80;99.00;;;;;;5073497;28;20052;-63
2021/10/30 11:39:05;;;;;;;8.02;5.53;;;12.80;99.10;;;;;;5053433;28;20039;-62
2021/10/30 11:41:33;;;;;;;7.75;5.47;;;12.80;99.10;;;;;;5069830;28;20043;-64
2021/10/30 11:44:06;;;;;;;7.78;5.13;;;12.80;99.20;;;;;;5070136;28;20195;-66
2021/10/30 11:46:32;;;;;;;;;;;12.80;99.10;;;;;;5071247;28;20381;-63
2021/10/30 11:49:00;;;;;;;7.25;4.22;;;12.70;98.90;;;;;;5070528;28;19927;-63
2021/10/30 11:51:34;;;;;;;5.63;4.25;;;12.70;99.00;;;;;;5086842;28;22233;-62
2021/10/30 11:54:01;;;;;;;5.55;4.45;;;12.80;98.80;;;;;;5070834;28;20044;-64
2021/10/30 11:56:29;;;;;;;7.07;4.90;;;12.80;98.70;;;;;;5071419;28;20426;-62
2021/10/30 11:58:59;;;;;;;7.45;4.45;;;12.90;98.60;;;;;;5070244;28;20118;-62
2021/10/30 12:01:34;;;;;;;8.35;4.68;;;12.90;98.50;;;;;;5072019;28;20036;-63
2021/10/30 12:04:24;;;;;;;6.72;4.53;;;12.90;98.30;;;;;;5067792;28;20040;-62
2021/10/30 12:07:01;;;;;;;6.75;4.30;;;13.00;98.20;;;;;;5070870;28;20031;-63
2021/10/30 12:09:35;;;;;;;7.43;4.72;;;13.00;98.10;;;;;;5087517;28;20124;-64
2021/10/30 12:12:03;;;;;;;6.82;4.60;;;13.10;98.00;;;;;;5085754;28;20111;-63
2021/10/30 12:14:30;;;;;;;6.53;4.57;;;13.10;98.00;;;;;;5043897;28;20044;-65
2021/10/30 12:17:13;;;;;;;4.95;3.60;;;13.20;98.00;;;;;;5058985;28;20032;-63
2021/10/30 12:19:40;;;;;;;6.10;4.60;;;13.20;97.90;;;;;;5087664;28;20095;-64
2021/10/30 12:22:11;;;;;;;4.70;3.90;;;13.30;97.80;;;;;;5085659;28;20287;-65
2021/10/30 12:24:42;;;;;;;4.97;3.85;;;13.30;97.80;;;;;;5072271;28;20629;-62
2021/10/30 12:27:08;;;;;;;6.65;4.07;;;13.30;97.80;;;;;;5069536;28;20055;-65
2021/10/30 12:29:45;;;;;;;8.20;4.63;;;13.30;97.80;;;;;;5071230;28;20055;-63
2021/10/30 12:32:15;;;;;;;4.88;4.00;;;13.30;97.70;;;;;;5069327;28;20490;-63
2021/10/30 12:35:01;;;;;;;5.22;4.15;;;13.30;97.70;;;;;;5071264;28;20047;-64
2021/10/30 12:37:30;;;;;;;6.30;3.80;;;13.30;97.80;;;;;;5067605;28;20049;-64
2021/10/30 12:40:04;;;;;;;10.52;5.20;;;13.30;97.80;;;;;;5086731;28;20047;-63
2021/10/30 12:42:29;;;;;;;;;;;13.40;97.90;;;;;;5043156;28;20052;-62
2021/10/30 12:44:55;;;;;;;6.85;4.50;;;13.30;97.90;;;;;;5048083;28;20036;-63